WRL weather

Worland Municipal Airport
Worland, Wyoming, United States

Public forecast

Using degrees Fahrenheit for public forecast. Weather courtesy of forecast.io.

Current aviation weather report (METAR) for Worland Municipal Airport

Retrieved 2019/12/13 23:53 UTC (12 minutes ago):

KWRL 132353Z AUTO 13008KT 10SM CLR M03/M05 A2991 RMK AO2 SLP171 T10281050 10039 21039 50000

Aviation forecast (TAF) for Worland Municipal Airport

Retrieved 2019-12-14 00:24 UTC (0 seconds ago):

TAF KWRL 132323Z 1400/1424 VRB05KT P6SM BKN100 FM141400 VRB05KT P6SM VCSH SCT030 BKN050